createdAt,value
2018-09-12T00:00:08.279Z,23.12
2018-09-12T00:01:08.300Z,23.11
2018-09-12T00:02:08.322Z,23.09
2018-09-12T00:03:08.346Z,23.16
2018-09-12T00:04:08.371Z,23.12
2018-09-12T00:05:08.405Z,23.22
2018-09-12T00:06:08.423Z,23.14
2018-09-12T00:07:08.445Z,23.12
2018-09-12T00:08:08.467Z,23.15
2018-09-12T00:09:08.494Z,23.16
2018-09-12T00:10:08.519Z,23.15
2018-09-12T00:11:08.543Z,23.12
2018-09-12T00:12:08.567Z,23.07
2018-09-12T00:13:08.594Z,23.16
2018-09-12T00:14:08.614Z,23.04
2018-09-12T00:15:08.638Z,23.14
2018-09-12T00:16:08.662Z,23.16
2018-09-12T00:17:08.689Z,23.18
2018-09-12T00:18:08.713Z,23.11
2018-09-12T00:19:08.736Z,23.04
2018-09-12T00:20:08.760Z,23.09
2018-09-12T00:21:08.852Z,23.07
2018-09-12T00:22:08.810Z,23.00
2018-09-12T00:23:08.835Z,23.04
2018-09-12T00:24:08.860Z,23.06
2018-09-12T00:25:08.885Z,23.07
2018-09-12T00:26:08.907Z,23.04
2018-09-12T00:27:08.932Z,23.04
2018-09-12T00:28:08.955Z,23.06
2018-09-12T00:29:08.980Z,23.07
2018-09-12T00:30:09.006Z,23.07
2018-09-12T00:31:09.029Z,23.06
2018-09-12T00:32:09.052Z,22.99
2018-09-12T00:33:09.077Z,23.06
2018-09-12T00:34:09.102Z,22.99
2018-09-12T00:35:09.126Z,23.04
2018-09-12T00:36:09.150Z,23.07
2018-09-12T00:37:09.174Z,23.09
2018-09-12T00:38:09.201Z,23.06
2018-09-12T00:39:09.226Z,23.01
2018-09-12T00:40:09.246Z,23.01
2018-09-12T00:41:09.273Z,23.00
2018-09-12T00:42:09.295Z,22.97
2018-09-12T00:43:09.318Z,22.99
2018-09-12T00:44:09.345Z,23.00
2018-09-12T00:45:09.368Z,22.99
2018-09-12T00:46:09.393Z,22.97
2018-09-12T00:47:09.416Z,22.94
2018-09-12T00:48:09.441Z,23.03
2018-09-12T00:49:09.469Z,23.03
2018-09-12T00:50:09.490Z,22.97
2018-09-12T00:51:09.514Z,22.99
2018-09-12T00:52:09.539Z,23.00
2018-09-12T00:53:09.563Z,23.04
2018-09-12T00:54:09.587Z,22.97
2018-09-12T00:55:09.609Z,22.94
2018-09-12T00:56:09.635Z,23.01
2018-09-12T00:57:09.659Z,23.00
2018-09-12T00:58:09.684Z,22.99
2018-09-12T00:59:09.711Z,23.01
2018-09-12T01:00:09.731Z,22.97
2018-09-12T01:01:09.757Z,22.97
2018-09-12T01:02:09.781Z,22.96
2018-09-12T01:03:09.804Z,23.03
2018-09-12T01:04:09.829Z,22.97
2018-09-12T01:05:09.860Z,23.01
2018-09-12T01:06:09.877Z,23.00
2018-09-12T01:07:09.901Z,23.00
2018-09-12T01:08:09.925Z,22.99
2018-09-12T01:09:09.953Z,23.00
2018-09-12T01:10:09.974Z,23.00
2018-09-12T01:11:09.997Z,22.99
2018-09-12T01:12:10.031Z,23.00
2018-09-12T01:13:10.045Z,23.00
2018-09-12T01:14:10.073Z,23.00
2018-09-12T01:15:10.095Z,23.00
2018-09-12T01:16:10.120Z,22.94
2018-09-12T01:17:10.147Z,22.97
2018-09-12T01:18:10.170Z,22.93
2018-09-12T01:19:10.212Z,22.96
2018-09-12T01:20:10.215Z,23.00
2018-09-12T01:21:10.241Z,22.97
2018-09-12T01:22:10.264Z,22.89
2018-09-12T01:23:10.288Z,22.93
2018-09-12T01:24:10.314Z,22.99
2018-09-12T01:25:10.337Z,22.91
2018-09-12T01:26:10.361Z,22.88
2018-09-12T01:27:10.387Z,22.94
2018-09-12T01:28:10.411Z,22.94
2018-09-12T01:29:10.434Z,22.91
2018-09-12T01:30:10.457Z,22.96
2018-09-12T01:31:10.481Z,22.96
2018-09-12T01:32:10.507Z,22.91
2018-09-12T01:33:10.535Z,22.93
2018-09-12T01:34:10.554Z,22.86
2018-09-12T01:35:10.578Z,22.91
2018-09-12T01:36:10.600Z,22.93
2018-09-12T01:37:10.627Z,22.88
2018-09-12T01:38:10.655Z,22.89
2018-09-12T01:39:10.675Z,22.96
2018-09-12T01:40:10.704Z,22.84
2018-09-12T01:41:10.726Z,22.86
2018-09-12T01:42:10.747Z,22.88
2018-09-12T01:43:10.773Z,22.91
2018-09-12T01:44:10.802Z,22.86
2018-09-12T01:45:10.821Z,22.78
2018-09-12T01:46:10.846Z,22.88
2018-09-12T01:47:10.869Z,22.81
2018-09-12T01:48:10.890Z,22.82
2018-09-12T01:49:10.916Z,22.96
2018-09-12T01:50:10.940Z,22.79
2018-09-12T01:51:10.965Z,22.79
2018-09-12T01:52:11.000Z,22.79
2018-09-12T01:53:11.014Z,22.84
2018-09-12T01:54:11.037Z,22.86
2018-09-12T01:55:11.069Z,22.82
2018-09-12T01:56:11.090Z,22.84
2018-09-12T01:57:11.111Z,22.85
2018-09-12T01:58:11.137Z,22.82
2018-09-12T01:59:11.161Z,22.85
2018-09-12T02:00:11.182Z,22.76
2018-09-12T02:01:11.211Z,22.75
2018-09-12T02:02:11.230Z,22.86
2018-09-12T02:03:11.255Z,22.82
2018-09-12T02:04:11.277Z,22.75
2018-09-12T02:05:11.304Z,22.79
2018-09-12T02:06:11.327Z,22.75
2018-09-12T02:07:11.350Z,22.69
2018-09-12T02:08:11.374Z,22.75
2018-09-12T02:09:11.399Z,22.81
2018-09-12T02:10:11.422Z,22.72
2018-09-12T02:11:11.446Z,22.72
2018-09-12T02:12:11.473Z,22.67
2018-09-12T02:13:11.498Z,22.69
2018-09-12T02:14:11.519Z,22.76
2018-09-12T02:15:11.543Z,22.70
2018-09-12T02:16:11.568Z,22.69
2018-09-12T02:17:11.593Z,22.70
2018-09-12T02:18:11.619Z,22.78
2018-09-12T02:19:11.641Z,22.70
2018-09-12T02:20:11.665Z,22.69
2018-09-12T02:21:11.723Z,22.76
2018-09-12T02:22:11.717Z,22.72
2018-09-12T02:23:11.735Z,22.74
2018-09-12T02:24:11.759Z,22.66
2018-09-12T02:25:11.788Z,22.74
2018-09-12T02:26:11.808Z,22.67
2018-09-12T02:27:11.831Z,22.74
2018-09-12T02:28:11.857Z,22.66
2018-09-12T02:29:11.880Z,22.72
2018-09-12T02:30:11.906Z,22.69
2018-09-12T02:31:11.927Z,22.70
2018-09-12T02:32:11.953Z,22.63
2018-09-12T02:33:11.975Z,22.69
2018-09-12T02:34:12.004Z,22.72
2018-09-12T02:35:12.023Z,22.66
2018-09-12T02:36:12.091Z,22.67
2018-09-12T02:37:12.074Z,22.69
2018-09-12T02:38:12.106Z,22.70
2018-09-12T02:39:12.120Z,22.61
2018-09-12T02:40:12.142Z,22.66
2018-09-12T02:41:12.168Z,22.67
2018-09-12T02:42:12.191Z,22.69
2018-09-12T02:43:12.218Z,22.67
2018-09-12T02:44:12.239Z,22.69
2018-09-12T02:45:12.263Z,22.67
2018-09-12T02:46:12.288Z,22.59
2018-09-12T02:47:12.310Z,22.61
2018-09-12T02:48:12.349Z,22.67
2018-09-12T02:49:12.360Z,22.60
2018-09-12T02:50:12.386Z,22.64
2018-09-12T02:51:12.410Z,22.57
2018-09-12T02:52:12.431Z,22.59
2018-09-12T02:53:12.456Z,22.63
2018-09-12T02:54:12.481Z,22.64
2018-09-12T02:55:12.507Z,22.60
2018-09-12T02:56:12.529Z,22.60
2018-09-12T02:57:12.552Z,22.59
2018-09-12T02:58:12.577Z,22.63
2018-09-12T02:59:12.600Z,22.66
2018-09-12T03:00:12.624Z,22.60
2018-09-12T03:01:12.650Z,22.57
2018-09-12T03:02:12.672Z,22.61
2018-09-12T03:03:12.694Z,22.57
2018-09-12T03:04:12.720Z,22.56
2018-09-12T03:05:12.746Z,22.54
2018-09-12T03:06:12.767Z,22.54
2018-09-12T03:07:12.792Z,22.60
2018-09-12T03:08:12.817Z,22.64
2018-09-12T03:09:12.839Z,22.57
2018-09-12T03:10:12.865Z,22.52
2018-09-12T03:11:12.887Z,22.54
2018-09-12T03:12:12.910Z,22.49
2018-09-12T03:13:12.937Z,22.48
2018-09-12T03:14:12.959Z,22.51
2018-09-12T03:15:12.982Z,22.45
2018-09-12T03:16:13.007Z,22.44
2018-09-12T03:17:13.032Z,22.42
2018-09-12T03:18:13.057Z,22.44
2018-09-12T03:19:13.082Z,22.45
2018-09-12T03:20:13.103Z,22.44
2018-09-12T03:21:13.235Z,22.45
2018-09-12T03:22:13.150Z,22.35
2018-09-12T03:23:13.172Z,22.39
2018-09-12T03:24:13.199Z,22.46
2018-09-12T03:25:13.225Z,22.45
2018-09-12T03:26:13.246Z,22.44
2018-09-12T03:27:13.275Z,22.30
2018-09-12T03:28:13.288Z,22.36
2018-09-12T03:29:13.320Z,22.31
2018-09-12T03:30:13.341Z,22.33
2018-09-12T03:31:13.380Z,22.30
2018-09-12T03:32:13.388Z,22.39
2018-09-12T03:33:13.411Z,22.38
2018-09-12T03:34:13.437Z,22.36
2018-09-12T03:35:13.471Z,22.30
2018-09-12T03:36:13.483Z,22.39
2018-09-12T03:37:13.507Z,22.42
2018-09-12T03:38:13.531Z,22.33
2018-09-12T03:39:13.555Z,22.30
2018-09-12T03:40:13.580Z,22.24
2018-09-12T03:41:13.605Z,22.35
2018-09-12T03:42:13.630Z,22.36
2018-09-12T03:43:13.649Z,22.29
2018-09-12T03:44:13.677Z,22.21
2018-09-12T03:45:13.700Z,22.24
2018-09-12T03:46:13.720Z,22.23
2018-09-12T03:47:13.745Z,22.21
2018-09-12T03:48:13.773Z,22.29
2018-09-12T03:49:13.795Z,22.30
2018-09-12T03:50:13.817Z,22.19
2018-09-12T03:51:13.841Z,22.26
2018-09-12T03:52:13.871Z,22.30
2018-09-12T03:53:13.887Z,22.31
2018-09-12T03:54:13.913Z,22.29
2018-09-12T03:55:13.934Z,22.26
2018-09-12T03:56:13.961Z,22.21
2018-09-12T03:57:13.984Z,22.21
2018-09-12T03:58:14.009Z,22.20
2018-09-12T03:59:14.030Z,22.20
2018-09-12T04:00:14.054Z,22.23
2018-09-12T04:01:14.080Z,22.21
2018-09-12T04:02:14.101Z,22.20
2018-09-12T04:03:14.125Z,22.15
2018-09-12T04:04:14.149Z,22.23
2018-09-12T04:05:14.172Z,22.24
2018-09-12T04:06:14.198Z,22.20
2018-09-12T04:07:14.222Z,22.17
2018-09-12T04:08:14.247Z,22.15
2018-09-12T04:09:14.269Z,22.19
2018-09-12T04:10:14.292Z,22.19
2018-09-12T04:11:14.314Z,22.15
2018-09-12T04:12:14.337Z,22.21
2018-09-12T04:14:49.463Z,22.04
2018-09-12T04:15:46.938Z,22.12
2018-09-12T04:17:40.922Z,22.11
2018-09-12T04:18:40.939Z,22.05
2018-09-12T04:20:46.216Z,22.09
2018-09-12T04:21:45.929Z,22.06
2018-09-12T04:22:45.950Z,22.11
2018-09-12T04:23:45.983Z,22.08
2018-09-12T04:24:46.008Z,22.06
2018-09-12T04:25:46.032Z,22.02
2018-09-12T04:26:46.056Z,22.04
2018-09-12T04:27:46.079Z,22.05
2018-09-12T04:28:46.102Z,21.99
2018-09-12T04:29:46.125Z,22.04
2018-09-12T04:30:46.149Z,21.99
2018-09-12T04:31:46.165Z,22.05
2018-09-12T04:32:46.186Z,21.98
2018-09-12T04:33:46.210Z,21.99
2018-09-12T04:34:46.243Z,22.05
2018-09-12T04:35:46.268Z,21.99
2018-09-12T04:36:46.292Z,21.98
2018-09-12T04:37:46.313Z,21.99
2018-09-12T04:38:46.338Z,21.99
2018-09-12T04:39:46.374Z,21.99
2018-09-12T04:40:46.387Z,22.02
2018-09-12T04:41:46.410Z,22.02
2018-09-12T04:42:46.509Z,21.96
2018-09-12T04:43:46.445Z,21.98
2018-09-12T04:46:19.168Z,22.02
2018-09-12T04:47:18.609Z,21.96
2018-09-12T04:49:11.928Z,21.94
2018-09-12T04:50:11.945Z,21.98
2018-09-12T04:52:05.941Z,21.94
2018-09-12T04:53:05.949Z,22.02
2018-09-12T04:54:59.930Z,21.98
2018-09-12T04:55:59.945Z,21.90
2018-09-12T04:57:53.944Z,22.01
2018-09-12T04:58:53.981Z,21.93
2018-09-12T05:00:47.539Z,21.91
2018-09-12T05:01:47.552Z,21.90
2018-09-12T05:03:41.254Z,21.89
2018-09-12T05:04:40.961Z,21.93
2018-09-12T05:05:40.986Z,21.99
2018-09-12T05:06:41.008Z,21.96
2018-09-12T05:07:41.031Z,21.89
2018-09-12T05:08:41.054Z,21.85
2018-09-12T05:09:41.081Z,21.91
2018-09-12T05:10:41.102Z,21.86
2018-09-12T05:11:41.126Z,21.85
2018-09-12T05:12:41.153Z,21.86
2018-09-12T05:13:41.172Z,21.81
2018-09-12T05:14:41.201Z,21.90
2018-09-12T05:15:41.219Z,21.96
2018-09-12T05:16:41.316Z,21.90
2018-09-12T05:17:41.268Z,21.93
2018-09-12T05:18:41.289Z,21.91
2018-09-12T05:19:41.315Z,21.86
2018-09-12T05:20:41.340Z,21.93
2018-09-12T05:21:41.360Z,21.85
2018-09-12T05:22:41.383Z,21.86
2018-09-12T05:23:41.406Z,21.90
2018-09-12T05:24:41.429Z,21.93
2018-09-12T05:25:41.460Z,21.89
2018-09-12T05:26:41.480Z,21.96
2018-09-12T05:27:41.504Z,21.81
2018-09-12T05:28:41.525Z,21.94
2018-09-12T05:29:41.552Z,21.99
2018-09-12T05:30:41.572Z,21.83
2018-09-12T05:31:41.595Z,21.94
2018-09-12T05:32:41.619Z,21.90
2018-09-12T05:33:41.650Z,21.89
2018-09-12T05:34:41.665Z,21.91
2018-09-12T05:35:41.688Z,21.86
2018-09-12T05:36:41.716Z,21.93
2018-09-12T05:37:41.735Z,21.89
2018-09-12T05:38:41.757Z,21.86
2018-09-12T05:39:41.784Z,21.90
2018-09-12T05:40:41.808Z,21.89
2018-09-12T05:41:41.833Z,21.83
2018-09-12T05:42:41.854Z,21.94
2018-09-12T05:43:41.876Z,21.94
2018-09-12T05:44:41.898Z,21.85
2018-09-12T05:45:41.925Z,21.94
2018-09-12T05:46:41.948Z,21.85
2018-09-12T05:47:41.972Z,21.98
2018-09-12T05:48:41.994Z,21.91
2018-09-12T05:49:42.018Z,21.73
2018-09-12T05:50:42.042Z,21.43
2018-09-12T05:51:42.067Z,21.31
2018-09-12T05:52:42.090Z,21.31
2018-09-12T05:53:42.124Z,21.37
2018-09-12T05:54:42.134Z,21.37
2018-09-12T05:55:42.158Z,21.49
2018-09-12T05:56:42.181Z,21.59
2018-09-12T05:57:42.209Z,21.66
2018-09-12T05:58:42.228Z,21.67
2018-09-12T05:59:42.252Z,21.70
2018-09-12T06:00:42.280Z,21.73
2018-09-12T06:01:42.305Z,21.75
2018-09-12T06:02:42.324Z,21.68
2018-09-12T06:03:42.347Z,21.82
2018-09-12T06:04:42.369Z,21.66
2018-09-12T06:05:42.391Z,21.81
2018-09-12T06:06:42.481Z,21.77
2018-09-12T06:07:42.437Z,21.81
2018-09-12T06:08:42.462Z,21.79
2018-09-12T06:09:42.487Z,21.86
2018-09-12T06:10:42.509Z,21.74
2018-09-12T06:11:42.533Z,21.85
2018-09-12T06:12:42.562Z,21.79
2018-09-12T06:13:42.636Z,21.79
2018-09-12T06:14:42.603Z,21.81
2018-09-12T06:15:42.627Z,21.82
2018-09-12T06:16:42.648Z,21.81
2018-09-12T06:17:42.672Z,21.83
2018-09-12T06:18:42.697Z,21.74
2018-09-12T06:19:42.727Z,21.82
2018-09-12T06:20:42.741Z,21.86
2018-09-12T06:21:42.771Z,21.79
2018-09-12T06:22:42.790Z,21.86
2018-09-12T06:23:42.815Z,21.85
2018-09-12T06:24:42.839Z,21.81
2018-09-12T06:25:42.860Z,21.81
2018-09-12T06:26:42.885Z,21.81
2018-09-12T06:27:42.905Z,21.77
2018-09-12T06:28:42.929Z,21.85
2018-09-12T06:29:42.955Z,21.86
2018-09-12T06:30:42.984Z,21.82
2018-09-12T06:31:43.000Z,21.99
2018-09-12T06:32:43.020Z,21.99
2018-09-12T06:33:43.046Z,22.01
2018-09-12T06:34:43.070Z,22.04
2018-09-12T06:35:43.093Z,22.05
2018-09-12T06:36:43.114Z,22.11
2018-09-12T06:37:43.219Z,22.12
2018-09-12T06:38:43.236Z,22.15
2018-09-12T06:39:43.190Z,22.20
2018-09-12T06:40:43.211Z,22.17
2018-09-12T06:41:43.235Z,22.23
2018-09-12T06:42:43.262Z,22.27
2018-09-12T06:43:43.282Z,22.19
2018-09-12T06:44:43.333Z,22.26
2018-09-12T06:45:43.329Z,22.31
2018-09-12T06:46:43.351Z,22.26
2018-09-12T06:47:43.394Z,22.20
2018-09-12T06:48:43.397Z,22.26
2018-09-12T06:49:43.422Z,22.20
2018-09-12T06:50:43.447Z,22.21
2018-09-12T06:51:43.469Z,22.29
2018-09-12T06:52:43.490Z,22.33
2018-09-12T06:53:43.522Z,22.38
2018-09-12T06:54:43.553Z,22.38
2018-09-12T06:55:43.561Z,22.29
2018-09-12T06:56:43.585Z,22.27
2018-09-12T06:57:43.611Z,22.26
2018-09-12T06:58:43.634Z,22.23
2018-09-12T06:59:43.661Z,22.30
2018-09-12T07:00:43.714Z,22.31
2018-09-12T07:01:43.705Z,22.39
2018-09-12T07:02:43.727Z,22.38
2018-09-12T07:03:43.750Z,22.46
2018-09-12T07:04:43.775Z,22.42
2018-09-12T07:05:43.798Z,22.45
2018-09-12T07:06:43.821Z,22.45
2018-09-12T07:07:43.846Z,22.49
2018-09-12T07:08:43.861Z,22.42
2018-09-12T07:09:43.892Z,22.45
2018-09-12T07:10:43.920Z,22.49
2018-09-12T07:11:43.940Z,22.51
2018-09-12T07:12:43.964Z,22.59
2018-09-12T07:13:43.986Z,22.60
2018-09-12T07:14:44.011Z,22.60
2018-09-12T07:15:44.033Z,22.66
2018-09-12T07:16:44.074Z,22.60
2018-09-12T07:17:44.082Z,22.69
2018-09-12T07:18:44.113Z,22.67
2018-09-12T07:19:44.130Z,22.67
2018-09-12T07:20:44.157Z,22.69
2018-09-12T07:21:44.178Z,22.72
2018-09-12T07:22:44.204Z,22.76
2018-09-12T07:23:44.233Z,22.75
2018-09-12T07:24:44.283Z,22.76
2018-09-12T07:25:44.278Z,22.76
2018-09-12T07:26:44.301Z,22.84
2018-09-12T07:27:44.405Z,22.91
2018-09-12T07:28:44.346Z,22.94
2018-09-12T07:29:44.375Z,22.89
2018-09-12T07:30:44.391Z,22.96
2018-09-12T07:31:44.413Z,22.96
2018-09-12T07:32:44.438Z,23.01
2018-09-12T07:33:44.466Z,23.01
2018-09-12T07:34:44.489Z,22.96
2018-09-12T07:35:44.514Z,22.94
2018-09-12T07:36:44.537Z,23.00
2018-09-12T07:37:44.562Z,23.04
2018-09-12T07:38:44.585Z,23.01
2018-09-12T07:39:44.608Z,23.07
2018-09-12T07:40:44.634Z,23.22
2018-09-12T07:41:44.748Z,23.16
2018-09-12T07:42:44.682Z,23.19
2018-09-12T07:43:44.788Z,23.18
2018-09-12T07:44:44.730Z,23.32
2018-09-12T07:45:44.762Z,23.22
2018-09-12T07:46:44.806Z,23.35
2018-09-12T07:47:44.801Z,23.32
2018-09-12T07:48:44.826Z,23.34
2018-09-12T07:49:44.850Z,23.32
2018-09-12T07:50:44.877Z,23.38
2018-09-12T07:51:44.895Z,23.34
2018-09-12T07:52:44.924Z,23.41
2018-09-12T07:53:44.946Z,23.39
2018-09-12T07:54:44.972Z,23.38
2018-09-12T07:55:44.997Z,23.44
2018-09-12T07:56:45.028Z,23.39
2018-09-12T07:57:45.043Z,23.41
2018-09-12T07:58:45.069Z,23.39
2018-09-12T07:59:45.093Z,23.44
2018-09-12T08:00:45.121Z,23.39
2018-09-12T08:01:45.143Z,23.38
2018-09-12T08:02:45.168Z,23.44
2018-09-12T08:03:45.188Z,23.44
2018-09-12T08:04:45.215Z,23.44
2018-09-12T08:05:45.242Z,23.42
2018-09-12T08:06:45.261Z,23.42
2018-09-12T08:07:45.286Z,23.44
2018-09-12T08:08:45.310Z,23.50
2018-09-12T08:09:45.345Z,23.50
2018-09-12T08:10:45.354Z,23.57
2018-09-12T08:11:45.382Z,23.50
2018-09-12T08:12:45.409Z,23.57
2018-09-12T08:13:45.433Z,23.53
2018-09-12T08:14:45.459Z,23.60
2018-09-12T08:15:45.481Z,23.56
2018-09-12T08:16:45.505Z,23.62
2018-09-12T08:17:45.533Z,23.62
2018-09-12T08:18:45.572Z,23.68
2018-09-12T08:19:45.576Z,23.64
2018-09-12T08:20:45.602Z,23.68
2018-09-12T08:21:45.631Z,23.69
2018-09-12T08:22:45.656Z,23.75
2018-09-12T08:23:45.681Z,23.74
2018-09-12T08:24:45.702Z,23.74
2018-09-12T08:25:45.721Z,23.78
2018-09-12T08:26:45.792Z,23.75
2018-09-12T08:27:45.771Z,23.69
2018-09-12T08:28:45.800Z,23.87
2018-09-12T08:29:45.821Z,23.72
2018-09-12T08:30:45.850Z,23.86
2018-09-12T08:31:45.878Z,23.79
2018-09-12T08:32:45.895Z,23.81
2018-09-12T08:33:45.937Z,23.81
2018-09-12T08:34:45.945Z,23.97
2018-09-12T08:35:45.972Z,23.93
2018-09-12T08:36:45.993Z,23.99
2018-09-12T08:37:46.018Z,24.02
2018-09-12T08:38:46.051Z,24.00
2018-09-12T08:39:46.069Z,24.06
2018-09-12T08:40:46.094Z,24.00
2018-09-12T08:41:46.116Z,24.04
2018-09-12T08:42:46.147Z,24.00
2018-09-12T08:43:46.196Z,24.11
2018-09-12T08:44:46.189Z,24.04
2018-09-12T08:45:46.220Z,24.14
2018-09-12T08:46:46.241Z,24.11
2018-09-12T08:47:46.316Z,23.99
2018-09-12T08:48:46.284Z,23.99
2018-09-12T08:49:46.313Z,24.05
2018-09-12T08:50:46.337Z,24.05
2018-09-12T08:51:46.370Z,24.00
2018-09-12T08:52:46.420Z,24.00
2018-09-12T08:53:46.413Z,24.08
2018-09-12T08:54:46.442Z,23.89
2018-09-12T08:55:46.464Z,24.02
2018-09-12T08:56:46.512Z,24.04
2018-09-12T08:57:46.511Z,23.87
2018-09-12T08:58:46.536Z,23.86
2018-09-12T08:59:46.561Z,23.75
2018-09-12T09:00:46.607Z,23.86
2018-09-12T09:01:46.614Z,23.90
2018-09-12T09:02:46.637Z,23.84
2018-09-12T09:03:46.715Z,23.81
2018-09-12T09:04:46.688Z,23.87
2018-09-12T09:05:46.712Z,23.82
2018-09-12T09:06:46.732Z,23.84
2018-09-12T09:07:46.759Z,23.84
2018-09-12T09:08:46.784Z,23.81
2018-09-12T09:09:46.807Z,23.86
2018-09-12T09:10:46.835Z,23.89
2018-09-12T09:11:46.859Z,23.84
2018-09-12T09:12:46.884Z,23.87
2018-09-12T09:13:46.910Z,23.84
2018-09-12T09:14:46.933Z,23.84
2018-09-12T09:15:46.956Z,23.89
2018-09-12T09:16:46.980Z,23.86
2018-09-12T09:17:47.014Z,23.89
2018-09-12T09:18:47.033Z,23.89
2018-09-12T09:19:47.071Z,23.81
2018-09-12T09:20:47.093Z,23.89
2018-09-12T09:21:47.095Z,23.81
2018-09-12T09:22:47.129Z,23.93
2018-09-12T09:23:47.229Z,23.96
2018-09-12T09:24:47.181Z,23.94
2018-09-12T09:25:47.219Z,23.96
2018-09-12T09:26:47.229Z,23.96
2018-09-12T09:27:47.251Z,23.99
2018-09-12T09:28:47.277Z,24.00
2018-09-12T09:29:47.299Z,23.97
2018-09-12T09:30:47.334Z,24.00
2018-09-12T09:31:47.357Z,23.94
2018-09-12T09:32:47.453Z,23.93
2018-09-12T09:33:47.407Z,23.93
2018-09-12T09:34:47.506Z,23.93
2018-09-12T09:35:47.541Z,23.90
2018-09-12T09:36:47.479Z,23.93
2018-09-12T09:37:47.522Z,23.93
2018-09-12T09:38:47.527Z,23.96
2018-09-12T09:39:47.554Z,23.96
2018-09-12T09:40:47.577Z,23.84
2018-09-12T09:41:47.608Z,23.82
2018-09-12T09:42:47.687Z,23.79
2018-09-12T09:43:47.651Z,23.86
2018-09-12T09:44:47.676Z,23.84
2018-09-12T09:45:47.706Z,23.90
2018-09-12T09:46:47.723Z,23.92
2018-09-12T09:47:47.819Z,23.96
2018-09-12T09:48:47.778Z,23.96
2018-09-12T09:49:47.802Z,23.96
2018-09-12T09:50:47.845Z,23.96
2018-09-12T09:51:47.850Z,23.96
2018-09-12T09:52:47.878Z,23.93
2018-09-12T09:53:47.900Z,23.90
2018-09-12T09:54:48.008Z,23.79
2018-09-12T09:55:47.952Z,23.87
2018-09-12T09:56:47.977Z,23.84
2018-09-12T09:57:47.997Z,23.81
2018-09-12T09:58:48.031Z,23.82
2018-09-12T09:59:48.048Z,23.84
2018-09-12T10:00:48.079Z,23.79
2018-09-12T10:01:48.099Z,23.81
2018-09-12T10:02:48.124Z,23.84
2018-09-12T10:03:48.150Z,23.82
2018-09-12T10:04:48.181Z,23.89
2018-09-12T10:05:48.215Z,23.72
2018-09-12T10:06:48.221Z,23.74
2018-09-12T10:07:48.252Z,23.71
2018-09-12T10:08:48.277Z,23.79
2018-09-12T10:09:48.299Z,23.71
2018-09-12T10:10:48.321Z,23.74
2018-09-12T10:11:48.369Z,23.63
2018-09-12T10:12:48.366Z,23.68
2018-09-12T10:13:48.392Z,23.67
2018-09-12T10:14:48.419Z,23.74
2018-09-12T10:15:48.442Z,23.71
2018-09-12T10:16:48.470Z,23.68
2018-09-12T10:17:48.492Z,23.62
2018-09-12T10:18:48.518Z,23.71
2018-09-12T10:19:48.542Z,23.71
2018-09-12T10:20:48.576Z,23.67
2018-09-12T10:21:48.590Z,23.69
2018-09-12T10:22:48.615Z,23.68
2018-09-12T10:23:48.639Z,23.69
2018-09-12T10:24:48.664Z,23.72
2018-09-12T10:25:48.695Z,23.75
2018-09-12T10:26:48.720Z,23.75
2018-09-12T10:27:48.740Z,23.86
2018-09-12T10:28:48.766Z,23.77
2018-09-12T10:29:48.795Z,23.75
2018-09-12T10:30:48.815Z,23.77
2018-09-12T10:31:48.844Z,23.71
2018-09-12T10:32:48.870Z,23.71
2018-09-12T10:33:48.892Z,23.79
2018-09-12T10:34:48.917Z,23.81
2018-09-12T10:35:48.936Z,23.71
2018-09-12T10:36:48.960Z,23.75
2018-09-12T10:37:48.989Z,23.74
2018-09-12T10:38:49.014Z,23.74
2018-09-12T10:39:49.039Z,23.78
2018-09-12T10:40:49.112Z,23.71
2018-09-12T10:41:49.103Z,23.69
2018-09-12T10:42:49.122Z,23.75
2018-09-12T10:43:49.137Z,23.78
2018-09-12T10:44:49.159Z,23.75
2018-09-12T10:45:49.210Z,23.69
2018-09-12T10:46:49.208Z,23.89
2018-09-12T10:47:49.235Z,23.90
2018-09-12T10:48:49.269Z,23.82
2018-09-12T10:49:49.294Z,23.79
2018-09-12T10:50:49.314Z,23.84
2018-09-12T10:51:49.343Z,23.81
2018-09-12T10:52:49.360Z,23.89
2018-09-12T10:53:49.388Z,23.86
2018-09-12T10:54:49.413Z,23.90
2018-09-12T10:55:49.435Z,23.82
2018-09-12T10:56:49.458Z,23.89
2018-09-12T10:57:49.489Z,23.82
2018-09-12T10:58:49.516Z,23.84
2018-09-12T10:59:49.536Z,23.82
2018-09-12T11:00:49.556Z,23.84
2018-09-12T11:01:49.578Z,23.89
2018-09-12T11:02:49.612Z,23.81
2018-09-12T11:03:49.633Z,23.86
2018-09-12T11:04:49.659Z,23.82
2018-09-12T11:05:49.683Z,23.86
2018-09-12T11:06:49.706Z,23.82
2018-09-12T11:07:49.728Z,23.89
2018-09-12T11:08:49.767Z,23.82
2018-09-12T11:09:49.809Z,23.75
2018-09-12T11:10:49.809Z,23.84
2018-09-12T11:11:49.867Z,23.89
2018-09-12T11:12:49.854Z,23.81
2018-09-12T11:13:49.884Z,23.89
2018-09-12T11:14:49.928Z,23.96
2018-09-12T11:15:49.953Z,23.90
2018-09-12T11:16:49.957Z,23.97
2018-09-12T11:17:50.012Z,23.86
2018-09-12T11:18:50.022Z,23.97
2018-09-12T11:19:51.030Z,23.96
2018-09-12T11:20:50.068Z,23.93
2018-09-12T11:21:50.092Z,23.89
2018-09-12T11:22:50.109Z,23.87
2018-09-12T11:23:50.186Z,23.82
2018-09-12T11:24:50.688Z,23.82
2018-09-12T11:25:51.193Z,23.86
2018-09-12T11:26:50.207Z,23.89
2018-09-12T11:27:50.229Z,23.99
2018-09-12T11:28:50.266Z,23.96
2018-09-12T11:29:50.278Z,23.93
2018-09-12T11:30:50.317Z,24.04
2018-09-12T11:31:50.333Z,24.09
2018-09-12T11:32:50.356Z,24.12
2018-09-12T11:33:50.381Z,24.08
2018-09-12T11:34:50.406Z,24.04
2018-09-12T11:35:50.429Z,24.08
2018-09-12T11:36:50.464Z,24.11
2018-09-12T11:37:50.484Z,24.05
2018-09-12T11:38:50.507Z,24.04
2018-09-12T11:39:50.534Z,24.05
2018-09-12T11:40:50.555Z,24.09
2018-09-12T11:41:50.581Z,24.06
2018-09-12T11:42:50.612Z,24.06
2018-09-12T11:43:50.634Z,24.06
2018-09-12T11:44:50.655Z,24.05
2018-09-12T11:45:50.676Z,24.08
2018-09-12T11:46:50.706Z,24.02
2018-09-12T11:47:50.729Z,24.02
2018-09-12T11:48:50.754Z,23.97
2018-09-12T11:49:50.779Z,24.04
2018-09-12T11:50:50.805Z,23.97
2018-09-12T11:51:50.833Z,23.96
2018-09-12T11:52:50.858Z,23.96
2018-09-12T11:53:50.881Z,23.92
2018-09-12T11:54:50.906Z,23.92
2018-09-12T11:55:50.930Z,23.96
2018-09-12T11:56:50.953Z,23.90
2018-09-12T11:57:50.980Z,23.93
2018-09-12T11:58:51.005Z,23.97
2018-09-12T11:59:51.030Z,23.97
2018-09-12T12:00:51.053Z,24.04
2018-09-12T12:01:51.082Z,23.99
2018-09-12T12:02:51.105Z,24.02
2018-09-12T12:03:51.129Z,24.06
2018-09-12T12:04:51.161Z,24.04
2018-09-12T12:05:51.176Z,24.04
2018-09-12T12:06:51.203Z,24.04
2018-09-12T12:07:51.228Z,24.06
2018-09-12T12:08:51.256Z,24.08
2018-09-12T12:09:51.280Z,24.11
2018-09-12T12:10:51.307Z,24.11
2018-09-12T12:11:51.329Z,24.05
2018-09-12T12:12:51.354Z,24.11
2018-09-12T12:13:51.378Z,24.11
2018-09-12T12:14:51.404Z,24.04
2018-09-12T12:15:51.425Z,24.04
2018-09-12T12:16:51.455Z,24.05
2018-09-12T12:17:51.483Z,24.06
2018-09-12T12:18:51.509Z,24.08
2018-09-12T12:19:51.543Z,24.04
2018-09-12T12:20:51.555Z,24.00
2018-09-12T12:21:51.577Z,24.05
2018-09-12T12:22:51.618Z,24.02
2018-09-12T12:23:51.625Z,24.11
2018-09-12T12:24:51.651Z,24.02
2018-09-12T12:25:51.682Z,24.02
2018-09-12T12:26:51.703Z,24.09
2018-09-12T12:27:51.732Z,24.11
2018-09-12T12:28:51.756Z,24.04
2018-09-12T12:29:51.823Z,24.08
2018-09-12T12:30:51.797Z,24.11
2018-09-12T12:31:51.833Z,24.14
2018-09-12T12:32:51.855Z,24.15
2018-09-12T12:33:51.884Z,24.18
2018-09-12T12:34:51.908Z,24.15
2018-09-12T12:35:51.931Z,24.15
2018-09-12T12:36:51.954Z,24.24
2018-09-12T12:37:51.978Z,24.27
2018-09-12T12:38:52.010Z,24.34
2018-09-12T12:39:52.045Z,24.30
2018-09-12T12:40:52.052Z,24.37
2018-09-12T12:41:52.076Z,24.39
2018-09-12T12:42:52.099Z,24.48
2018-09-12T12:43:52.128Z,24.44
2018-09-12T12:44:52.156Z,24.46
2018-09-12T12:45:52.180Z,24.51
2018-09-12T12:46:52.227Z,24.61
2018-09-12T12:47:52.233Z,24.56
2018-09-12T12:48:52.252Z,24.55
2018-09-12T12:49:52.278Z,24.68
2018-09-12T12:50:52.302Z,24.66
2018-09-12T12:51:52.329Z,24.66
2018-09-12T12:52:52.367Z,24.70
2018-09-12T12:53:52.377Z,24.64
2018-09-12T12:54:52.408Z,24.71
2018-09-12T12:55:52.431Z,24.71
2018-09-12T12:56:52.456Z,24.68
2018-09-12T12:57:52.481Z,24.67
2018-09-12T12:58:52.507Z,24.75
2018-09-12T12:59:52.566Z,24.70
2018-09-12T13:00:52.556Z,24.74
2018-09-12T13:01:52.584Z,24.68
2018-09-12T13:02:52.608Z,24.71